createdAt,value
2019-05-05T00:02:39.530Z,15.67
2019-05-05T00:05:35.696Z,15.75
2019-05-05T00:08:26.309Z,15.92
2019-05-05T00:11:36.616Z,16.01
2019-05-05T00:14:44.227Z,16.02
2019-05-05T00:17:34.669Z,15.98
2019-05-05T00:20:25.163Z,15.96
2019-05-05T00:23:16.805Z,15.89
2019-05-05T00:26:07.352Z,15.82
2019-05-05T00:28:58.692Z,15.90
2019-05-05T00:31:49.166Z,15.96
2019-05-05T00:34:39.660Z,16.06
2019-05-05T00:37:30.142Z,15.88
2019-05-05T00:40:20.543Z,15.78
2019-05-05T00:43:10.931Z,15.73
2019-05-05T00:46:09.072Z,15.79
2019-05-05T00:48:59.371Z,15.63
2019-05-05T00:51:49.919Z,15.59
2019-05-05T00:54:40.632Z,15.60
2019-05-05T00:57:31.146Z,15.66
2019-05-05T01:00:44.258Z,15.65
2019-05-05T01:03:34.859Z,15.72
2019-05-05T01:06:27.461Z,15.73
2019-05-05T01:09:19.328Z,15.63
2019-05-05T01:12:10.188Z,15.65
2019-05-05T01:15:00.322Z,15.54
2019-05-05T01:17:50.858Z,15.60
2019-05-05T01:20:41.285Z,15.52
2019-05-05T01:23:34.795Z,15.51
2019-05-05T01:26:24.947Z,15.41
2019-05-05T01:29:15.687Z,15.36
2019-05-05T01:32:08.564Z,15.32
2019-05-05T01:34:58.904Z,15.40
2019-05-05T01:37:55.185Z,15.48
2019-05-05T01:41:25.259Z,15.42
2019-05-05T01:44:15.839Z,15.36
2019-05-05T01:47:06.279Z,15.45
2019-05-05T01:49:57.195Z,15.44
2019-05-05T01:52:48.392Z,15.52
2019-05-05T01:55:38.933Z,15.50
2019-05-05T01:58:29.269Z,15.75
2019-05-05T02:01:19.468Z,15.71
2019-05-05T02:04:09.607Z,15.70
2019-05-05T02:07:00.107Z,15.74
2019-05-05T02:09:50.808Z,15.94
2019-05-05T02:12:41.459Z,15.99
2019-05-05T02:15:34.184Z,16.04
2019-05-05T02:18:25.346Z,16.14
2019-05-05T02:21:15.850Z,16.05
2019-05-05T02:24:08.684Z,16.03
2019-05-05T02:26:59.306Z,16.07
2019-05-05T02:29:59.629Z,16.19
2019-05-05T02:32:57.888Z,16.08
2019-05-05T02:35:48.118Z,16.09
2019-05-05T02:38:38.568Z,16.14
2019-05-05T02:41:29.031Z,16.22
2019-05-05T02:44:19.337Z,16.18
2019-05-05T02:47:25.682Z,16.00
2019-05-05T02:50:15.723Z,16.19
2019-05-05T02:53:06.377Z,16.09
2019-05-05T02:55:59.957Z,16.03
2019-05-05T02:58:50.183Z,16.07
2019-05-05T03:01:56.258Z,16.16
2019-05-05T03:04:46.951Z,16.13
2019-05-05T03:07:37.648Z,16.05
2019-05-05T03:10:27.892Z,15.98
2019-05-05T03:13:18.152Z,15.98
2019-05-05T03:16:16.421Z,16.11
2019-05-05T03:19:07.178Z,16.09
2019-05-05T03:21:57.499Z,16.12
2019-05-05T03:24:48.102Z,16.19
2019-05-05T03:27:38.583Z,16.25
2019-05-05T03:30:29.813Z,16.11
2019-05-05T03:33:19.954Z,16.13
2019-05-05T03:36:10.449Z,16.16
2019-05-05T03:39:00.704Z,16.13
2019-05-05T03:42:03.634Z,16.11
2019-05-05T03:45:06.853Z,16.10
2019-05-05T03:47:57.336Z,16.05
2019-05-05T03:50:47.798Z,15.93
2019-05-05T03:53:38.098Z,16.01
2019-05-05T03:56:28.520Z,16.01
2019-05-05T03:59:19.018Z,16.02
2019-05-05T04:02:37.465Z,16.11
2019-05-05T04:05:33.992Z,16.14
2019-05-05T04:08:24.416Z,16.09
2019-05-05T04:11:14.828Z,16.22
2019-05-05T04:14:05.291Z,16.36
2019-05-05T04:17:18.760Z,16.58
2019-05-05T04:20:30.238Z,16.67
2019-05-05T04:23:20.744Z,16.85
2019-05-05T04:26:10.945Z,17.23
2019-05-05T04:29:04.667Z,17.57
2019-05-05T04:31:54.015Z,17.89
2019-05-05T04:34:44.898Z,17.91
2019-05-05T04:37:35.236Z,17.91
2019-05-05T04:40:26.436Z,18.04
2019-05-05T04:43:16.848Z,18.12
2019-05-05T04:46:07.262Z,18.63
2019-05-05T04:49:04.457Z,18.52
2019-05-05T04:51:55.446Z,18.39
2019-05-05T04:54:50.733Z,18.03
2019-05-05T04:57:40.939Z,17.98
2019-05-05T05:00:31.381Z,17.75
2019-05-05T05:03:40.273Z,17.67
2019-05-05T05:06:40.905Z,17.65
2019-05-05T05:09:34.030Z,17.51
2019-05-05T05:12:23.910Z,17.48
2019-05-05T05:15:14.722Z,17.61
2019-05-05T05:18:16.865Z,17.69
2019-05-05T05:21:08.707Z,17.88
2019-05-05T05:23:59.136Z,18.01
2019-05-05T05:26:49.592Z,18.46
2019-05-05T05:29:40.026Z,18.63
2019-05-05T05:32:30.682Z,19.54
2019-05-05T05:35:20.792Z,20.51
2019-05-05T05:38:11.151Z,20.38
2019-05-05T05:41:23.938Z,20.48
2019-05-05T05:44:21.377Z,20.48
2019-05-05T05:47:36.404Z,20.36
2019-05-05T05:50:33.925Z,20.12
2019-05-05T05:53:24.628Z,19.96
2019-05-05T05:56:16.029Z,19.94
2019-05-05T05:59:06.512Z,19.55
2019-05-05T06:02:08.993Z,19.37
2019-05-05T06:04:48.596Z,19.37
2019-05-05T06:07:38.885Z,19.21
2019-05-05T06:10:29.469Z,19.26
2019-05-05T06:13:20.016Z,19.26
2019-05-05T06:16:10.458Z,19.47
2019-05-05T06:19:03.500Z,19.81
2019-05-05T06:21:54.315Z,20.03
2019-05-05T06:24:44.967Z,20.23
2019-05-05T06:27:35.464Z,20.40
2019-05-05T06:30:25.645Z,21.08
2019-05-05T06:33:16.241Z,23.44
2019-05-05T06:36:06.744Z,25.20
2019-05-05T06:38:57.196Z,25.22
2019-05-05T06:42:09.576Z,25.26
2019-05-05T06:45:16.094Z,25.70
2019-05-05T06:48:06.355Z,24.94
2019-05-05T06:50:57.732Z,23.84
2019-05-05T06:53:48.300Z,23.59
2019-05-05T06:56:38.583Z,22.76
2019-05-05T06:59:29.120Z,22.94
2019-05-05T07:02:19.481Z,25.04
2019-05-05T07:05:09.654Z,25.95
2019-05-05T07:08:01.631Z,27.31
2019-05-05T07:10:54.743Z,27.97
2019-05-05T07:13:45.313Z,28.07
2019-05-05T07:16:36.571Z,29.14
2019-05-05T07:19:27.680Z,30.12
2019-05-05T07:22:19.848Z,29.20
2019-05-05T07:25:11.170Z,28.94
2019-05-05T07:28:04.218Z,27.63
2019-05-05T07:30:55.333Z,26.81
2019-05-05T07:33:46.650Z,25.88
2019-05-05T07:36:48.763Z,25.62
2019-05-05T07:39:39.194Z,24.81
2019-05-05T07:42:29.590Z,24.55
2019-05-05T07:45:22.967Z,24.27
2019-05-05T07:48:13.696Z,23.84
2019-05-05T07:51:05.261Z,23.97
2019-05-05T07:53:56.608Z,23.67
2019-05-05T07:56:47.511Z,24.17
2019-05-05T07:59:37.981Z,24.09
2019-05-05T08:02:28.412Z,24.50
2019-05-05T08:05:19.437Z,24.82
2019-05-05T08:08:10.647Z,24.88
2019-05-05T08:11:01.234Z,24.61
2019-05-05T08:13:54.747Z,24.74
2019-05-05T08:17:01.452Z,25.03
2019-05-05T08:19:58.593Z,24.69
2019-05-05T08:22:48.696Z,24.41
2019-05-05T08:25:54.134Z,23.63
2019-05-05T08:28:53.991Z,23.97
2019-05-05T08:31:53.663Z,24.20
2019-05-05T08:34:56.933Z,24.22
2019-05-05T08:37:35.956Z,24.29
2019-05-05T08:40:27.037Z,24.80
2019-05-05T08:43:18.137Z,27.56
2019-05-05T08:46:09.332Z,29.46
2019-05-05T08:49:00.567Z,29.45
2019-05-05T08:51:51.642Z,29.40
2019-05-05T08:54:44.468Z,29.86
2019-05-05T08:57:35.285Z,29.32
2019-05-05T09:00:26.374Z,27.86
2019-05-05T09:03:17.337Z,28.26
2019-05-05T09:06:08.113Z,26.18
2019-05-05T09:08:59.068Z,25.92
2019-05-05T09:11:50.209Z,25.77
2019-05-05T09:14:41.240Z,25.31
2019-05-05T09:17:33.592Z,24.91
2019-05-05T09:20:24.301Z,24.83
2019-05-05T09:23:15.006Z,24.25
2019-05-05T09:26:36.339Z,23.79
2019-05-05T09:29:34.733Z,24.30
2019-05-05T09:32:24.889Z,24.60
2019-05-05T09:35:15.134Z,24.83
2019-05-05T09:38:05.574Z,24.55
2019-05-05T09:40:56.069Z,24.15
2019-05-05T09:43:46.496Z,24.33
2019-05-05T09:46:39.572Z,24.15
2019-05-05T09:49:28.866Z,24.05
2019-05-05T09:52:19.435Z,24.24
2019-05-05T09:55:13.846Z,24.73
2019-05-05T09:58:04.490Z,24.75
2019-05-05T10:00:55.986Z,24.31
2019-05-05T10:03:46.463Z,23.83
2019-05-05T10:06:37.335Z,23.82
2019-05-05T10:09:27.999Z,23.94
2019-05-05T10:12:18.373Z,24.08
2019-05-05T10:15:09.067Z,23.96
2019-05-05T10:17:59.460Z,24.02
2019-05-05T10:20:50.004Z,24.29
2019-05-05T10:23:43.620Z,23.42
2019-05-05T10:26:35.119Z,23.18
2019-05-05T10:29:25.611Z,23.09
2019-05-05T10:32:16.305Z,23.02
2019-05-05T10:35:06.753Z,22.79
2019-05-05T10:37:57.096Z,22.91
2019-05-05T10:40:48.406Z,22.99
2019-05-05T10:43:38.800Z,22.98
2019-05-05T10:46:29.397Z,23.37
2019-05-05T10:49:21.084Z,23.69
2019-05-05T10:52:14.048Z,23.37
2019-05-05T10:55:04.241Z,23.42
2019-05-05T10:57:55.078Z,23.46
2019-05-05T11:00:57.275Z,23.27
2019-05-05T11:03:47.756Z,22.90
2019-05-05T11:06:38.328Z,23.48
2019-05-05T11:09:28.754Z,23.73
2019-05-05T11:12:19.352Z,23.92
2019-05-05T11:15:09.456Z,23.58
2019-05-05T11:17:59.953Z,23.31
2019-05-05T11:20:50.602Z,23.35
2019-05-05T11:23:41.303Z,23.51
2019-05-05T11:26:33.866Z,23.24
2019-05-05T11:29:24.189Z,23.52
2019-05-05T11:32:21.497Z,23.38
2019-05-05T11:35:13.891Z,23.09
2019-05-05T11:38:03.675Z,22.89
2019-05-05T11:40:54.811Z,22.67
2019-05-05T11:43:45.320Z,22.68
2019-05-05T11:46:35.962Z,22.67
2019-05-05T11:49:27.241Z,22.68
2019-05-05T11:52:17.708Z,22.74
2019-05-05T11:55:11.655Z,22.87
2019-05-05T11:58:00.567Z,22.67
2019-05-05T12:00:50.976Z,22.70
2019-05-05T12:03:41.442Z,22.88
2019-05-05T12:06:33.848Z,22.86
2019-05-05T12:09:29.784Z,22.94
2019-05-05T12:12:20.022Z,22.70
2019-05-05T12:15:10.470Z,22.85
2019-05-05T12:18:00.722Z,22.85
2019-05-05T12:20:51.164Z,22.90
2019-05-05T12:23:44.441Z,22.95
2019-05-05T12:26:54.164Z,22.63
2019-05-05T12:29:54.448Z,22.63
2019-05-05T12:32:44.871Z,22.71
2019-05-05T12:35:35.429Z,22.94
2019-05-05T12:38:25.969Z,23.10
2019-05-05T12:41:16.546Z,23.06
2019-05-05T12:44:08.497Z,23.01
2019-05-05T12:47:34.248Z,23.00
2019-05-05T12:50:24.937Z,23.29
2019-05-05T12:53:15.262Z,23.44
2019-05-05T12:56:05.924Z,23.65
2019-05-05T12:58:56.055Z,23.65
2019-05-05T13:01:46.752Z,23.36
2019-05-05T13:04:37.234Z,23.29
2019-05-05T13:07:28.116Z,23.44
2019-05-05T13:10:19.423Z,23.25
2019-05-05T13:13:10.170Z,23.27
2019-05-05T13:16:00.556Z,23.25
2019-05-05T13:18:51.119Z,23.21
2019-05-05T13:22:06.626Z,23.31
2019-05-05T13:25:21.981Z,23.52
2019-05-05T13:28:11.997Z,23.76
2019-05-05T13:31:04.610Z,24.05
2019-05-05T13:33:54.951Z,23.98
2019-05-05T13:36:48.527Z,23.93
2019-05-05T13:39:38.897Z,24.11
2019-05-05T13:42:30.160Z,24.10
2019-05-05T13:45:38.696Z,24.19
2019-05-05T13:48:29.502Z,23.93
2019-05-05T13:51:19.950Z,23.67
2019-05-05T13:54:10.723Z,23.59
2019-05-05T13:57:01.063Z,23.59
2019-05-05T13:59:51.373Z,23.50
2019-05-05T14:02:43.893Z,23.44
2019-05-05T14:05:34.500Z,23.18
2019-05-05T14:08:25.936Z,23.41
2019-05-05T14:11:16.661Z,23.58
2019-05-05T14:14:07.102Z,23.47
2019-05-05T14:16:57.683Z,23.46
2019-05-05T14:20:01.555Z,23.42
2019-05-05T14:22:39.942Z,23.32
2019-05-05T14:25:30.899Z,23.34
2019-05-05T14:28:23.639Z,23.42
2019-05-05T14:31:16.975Z,23.39
2019-05-05T14:34:15.853Z,23.38
2019-05-05T14:37:24.854Z,23.44
2019-05-05T14:40:15.316Z,23.50
2019-05-05T14:43:05.720Z,23.36
2019-05-05T14:45:56.417Z,23.25
2019-05-05T14:48:46.593Z,23.18
2019-05-05T14:51:36.928Z,22.94
2019-05-05T14:54:27.381Z,22.92
2019-05-05T14:57:18.704Z,22.60
2019-05-05T15:00:10.365Z,22.19
2019-05-05T15:03:03.686Z,21.96
2019-05-05T15:06:20.002Z,21.80
2019-05-05T15:09:27.573Z,21.52
2019-05-05T15:12:30.434Z,21.12
2019-05-05T15:15:23.620Z,20.54
2019-05-05T15:18:14.631Z,20.19
2019-05-05T15:21:05.062Z,19.79
2019-05-05T15:23:55.292Z,19.48
2019-05-05T15:26:51.957Z,19.20
2019-05-05T15:29:37.647Z,18.92
2019-05-05T15:32:27.904Z,19.01
2019-05-05T15:35:18.384Z,19.06
2019-05-05T15:38:08.648Z,19.32
2019-05-05T15:40:58.953Z,19.43
2019-05-05T15:43:49.235Z,19.61
2019-05-05T15:46:39.791Z,19.71
2019-05-05T15:49:30.410Z,19.77
2019-05-05T15:52:21.012Z,19.86
2019-05-05T15:55:11.297Z,20.05
2019-05-05T15:58:03.509Z,20.05
2019-05-05T16:00:55.024Z,20.11
2019-05-05T16:03:45.217Z,20.08
2019-05-05T16:06:35.678Z,20.27
2019-05-05T16:09:26.092Z,20.37
2019-05-05T16:12:16.552Z,20.17
2019-05-05T16:15:26.725Z,20.03
2019-05-05T16:18:24.706Z,19.99
2019-05-05T16:21:34.620Z,19.98
2019-05-05T16:24:31.392Z,19.96
2019-05-05T16:27:24.900Z,20.06
2019-05-05T16:30:17.069Z,20.05
2019-05-05T16:33:07.606Z,20.08
2019-05-05T16:35:58.091Z,19.89
2019-05-05T16:38:48.651Z,19.86
2019-05-05T16:41:39.333Z,19.88
2019-05-05T16:44:29.960Z,19.93
2019-05-05T16:47:20.887Z,19.97
2019-05-05T16:50:11.267Z,19.83
2019-05-05T16:53:04.366Z,19.66
2019-05-05T16:55:56.583Z,19.38
2019-05-05T16:58:47.297Z,19.19
2019-05-05T17:01:37.605Z,18.90
2019-05-05T17:04:30.352Z,18.90
2019-05-05T17:07:20.802Z,18.88
2019-05-05T17:10:11.108Z,18.86
2019-05-05T17:13:07.184Z,18.78
2019-05-05T17:16:15.269Z,18.84
2019-05-05T17:19:14.173Z,18.65
2019-05-05T17:22:35.682Z,18.77
2019-05-05T17:25:25.645Z,18.77
2019-05-05T17:28:16.366Z,18.55
2019-05-05T17:31:06.940Z,18.62
2019-05-05T17:33:57.287Z,18.31
2019-05-05T17:36:47.677Z,18.31
2019-05-05T17:39:43.790Z,18.22
2019-05-05T17:42:45.098Z,18.24
2019-05-05T17:45:55.078Z,18.12
2019-05-05T17:49:04.678Z,18.16
2019-05-05T17:52:00.310Z,18.04
2019-05-05T17:54:54.048Z,18.03
2019-05-05T17:57:45.445Z,18.11
2019-05-05T18:00:43.476Z,18.01
2019-05-05T18:03:34.076Z,18.07
2019-05-05T18:06:34.887Z,18.10
2019-05-05T18:09:35.227Z,18.11
2019-05-05T18:12:54.068Z,18.19
2019-05-05T18:15:54.334Z,18.24
2019-05-05T18:18:46.133Z,18.21
2019-05-05T18:21:36.661Z,18.09
2019-05-05T18:24:27.127Z,18.20
2019-05-05T18:27:18.072Z,18.01
2019-05-05T18:30:08.532Z,18.06
2019-05-05T18:32:58.998Z,17.99
2019-05-05T18:35:49.528Z,18.09
2019-05-05T18:38:40.147Z,18.10
2019-05-05T18:41:39.006Z,18.11
2019-05-05T18:44:35.977Z,18.11
2019-05-05T18:47:29.239Z,18.02
2019-05-05T18:50:19.554Z,18.05
2019-05-05T18:53:10.114Z,18.00
2019-05-05T18:56:00.645Z,17.78
2019-05-05T18:58:50.978Z,17.80
2019-05-05T19:01:48.646Z,17.72
2019-05-05T19:04:48.817Z,17.55
2019-05-05T19:07:55.234Z,17.57
2019-05-05T19:10:37.904Z,17.50
2019-05-05T19:13:28.548Z,17.51
2019-05-05T19:16:18.791Z,17.67
2019-05-05T19:19:09.512Z,17.68
2019-05-05T19:22:04.645Z,17.58
2019-05-05T19:24:55.242Z,17.56
2019-05-05T19:27:46.421Z,17.61
2019-05-05T19:30:36.725Z,17.67
2019-05-05T19:33:27.179Z,17.73
2019-05-05T19:36:17.714Z,17.75
2019-05-05T19:39:08.189Z,17.74
2019-05-05T19:42:00.598Z,17.75
2019-05-05T19:44:50.978Z,17.65
2019-05-05T19:47:43.885Z,17.62
2019-05-05T19:50:40.108Z,17.58
2019-05-05T19:53:30.362Z,17.57
2019-05-05T19:56:21.841Z,17.57
2019-05-05T19:59:13.722Z,17.42
2019-05-05T20:02:04.254Z,17.70
2019-05-05T20:04:54.970Z,17.71
2019-05-05T20:07:45.547Z,17.64
2019-05-05T20:10:35.816Z,17.70
2019-05-05T20:13:26.321Z,17.75
2019-05-05T20:16:26.541Z,17.81
2019-05-05T20:19:16.653Z,17.74
2019-05-05T20:22:08.065Z,17.78
2019-05-05T20:24:58.545Z,17.66
2019-05-05T20:27:48.687Z,17.68
2019-05-05T20:30:38.852Z,17.46
2019-05-05T20:33:38.271Z,17.49
2019-05-05T20:36:28.938Z,17.34
2019-05-05T20:39:19.449Z,17.46
2019-05-05T20:42:09.589Z,17.29
2019-05-05T20:44:59.961Z,17.29
2019-05-05T20:47:50.195Z,17.14
2019-05-05T20:50:41.056Z,17.04
2019-05-05T20:53:31.554Z,17.06
2019-05-05T20:56:22.253Z,17.01
2019-05-05T20:59:26.814Z,17.13
2019-05-05T21:02:04.745Z,17.11
2019-05-05T21:04:55.511Z,17.09
2019-05-05T21:07:46.988Z,16.96
2019-05-05T21:10:37.613Z,17.12
2019-05-05T21:13:27.832Z,17.10
2019-05-05T21:16:18.268Z,17.22
2019-05-05T21:19:08.570Z,17.10
2019-05-05T21:22:00.965Z,17.17
2019-05-05T21:24:51.308Z,17.19
2019-05-05T21:27:43.590Z,17.01
2019-05-05T21:30:34.257Z,16.88
2019-05-05T21:33:24.473Z,16.89
2019-05-05T21:36:14.863Z,17.00
2019-05-05T21:39:06.713Z,16.93
2019-05-05T21:41:58.317Z,16.77
2019-05-05T21:44:48.609Z,16.74
2019-05-05T21:47:39.584Z,16.70
2019-05-05T21:50:35.670Z,16.73
2019-05-05T21:53:36.411Z,16.90
2019-05-05T21:56:44.600Z,16.95
2019-05-05T21:59:35.055Z,17.02
2019-05-05T22:02:25.646Z,17.07
2019-05-05T22:05:15.917Z,17.11
2019-05-05T22:08:06.324Z,17.21
2019-05-05T22:10:56.659Z,17.22
2019-05-05T22:13:46.876Z,17.23
2019-05-05T22:16:37.499Z,17.19
2019-05-05T22:19:29.587Z,17.06
2019-05-05T22:22:21.486Z,17.19
2019-05-05T22:25:11.452Z,17.16
2019-05-05T22:28:04.142Z,17.07
2019-05-05T22:30:55.557Z,17.03
2019-05-05T22:33:46.034Z,17.10
2019-05-05T22:36:36.530Z,17.08
2019-05-05T22:39:27.747Z,16.97
2019-05-05T22:42:18.368Z,16.97
2019-05-05T22:45:09.367Z,17.01
2019-05-05T22:47:59.966Z,16.93
2019-05-05T22:50:50.513Z,16.82
2019-05-05T22:53:40.943Z,16.89
2019-05-05T22:56:33.744Z,16.79
2019-05-05T22:59:26.146Z,16.93
2019-05-05T23:02:17.760Z,16.96
2019-05-05T23:05:25.119Z,16.87
2019-05-05T23:08:18.398Z,16.80
2019-05-05T23:11:07.463Z,16.63
2019-05-05T23:14:16.843Z,16.66
2019-05-05T23:17:34.025Z,16.66
2019-05-05T23:20:54.697Z,16.72
2019-05-05T23:24:14.179Z,16.65
2019-05-05T23:27:04.814Z,16.61
2019-05-05T23:29:55.211Z,16.50
2019-05-05T23:32:45.962Z,16.60
2019-05-05T23:35:36.382Z,16.62
2019-05-05T23:38:26.829Z,16.52
2019-05-05T23:41:17.324Z,16.29
2019-05-05T23:44:07.904Z,16.32
2019-05-05T23:46:58.285Z,16.37
2019-05-05T23:49:48.810Z,16.30
2019-05-05T23:52:39.112Z,16.40
2019-05-05T23:55:29.692Z,16.28
2019-05-05T23:58:21.074Z,16.20
